Time;durP1;ratioP1;P1;durP2;ratioP2;P2;SDS_P1;SDS_P2;PMS_P1;PMS_P2;Temp;Humidity;BMP_temperature;BMP_pressure;BME280_temperature;BME280_humidity;BME280_pressure;Samples;Min_cycle;Max_cycle;Signal;HPM_P1;HPM_P2
2022/07/10 00:01:20;;;;;;;8.80;3.60;;;;;;;18.56;50.69;99064.27;235738;1201;138748;-61
2022/07/10 00:06:23;;;;;;;6.50;3.40;;;;;;;18.56;50.84;99056.02;235879;1201;138902;-59
2022/07/10 00:11:26;;;;;;;13.10;4.00;;;;;;;18.52;50.95;99049.42;235754;1203;139069;-60
2022/07/10 00:16:29;;;;;;;6.90;4.00;;;;;;;18.52;51.23;99053.88;235802;1201;138885;-60
2022/07/10 00:21:33;;;;;;;9.10;4.20;;;;;;;18.49;51.29;99053.05;235842;1203;138637;-54
2022/07/10 00:26:36;;;;;;;10.60;4.50;;;;;;;18.49;51.43;99051.65;235615;1201;138674;-59
2022/07/10 00:31:39;;;;;;;6.80;4.10;;;;;;;18.47;51.52;99042.46;235832;1203;139061;-57
2022/07/10 00:36:43;;;;;;;7.80;4.40;;;;;;;18.45;51.68;99041.94;235689;1202;139229;-59
2022/07/10 00:41:46;;;;;;;6.60;4.20;;;;;;;18.40;51.54;99033.23;235784;1202;139311;-59
2022/07/10 00:46:49;;;;;;;7.10;4.10;;;;;;;18.38;51.75;99029.86;235617;1201;139477;-57
2022/07/10 00:51:53;;;;;;;6.70;4.20;;;;;;;18.36;51.95;99021.80;235371;1201;138614;-58
2022/07/10 00:56:56;;;;;;;7.70;4.90;;;;;;;18.28;52.06;99017.85;235947;1200;139430;-59
2022/07/10 01:02:00;;;;;;;7.10;4.70;;;;;;;18.26;52.11;99015.57;235847;1201;138779;-60
2022/07/10 01:07:04;;;;;;;8.60;4.70;;;;;;;18.21;52.54;99013.31;235720;1201;138999;-60
2022/07/10 01:12:08;;;;;;;7.00;4.70;;;;;;;18.15;52.66;99007.02;235836;1200;138665;-59
2022/07/10 01:17:12;;;;;;;8.60;4.80;;;;;;;18.14;52.74;98997.78;235749;1203;138406;-57
2022/07/10 01:22:15;;;;;;;9.50;5.10;;;;;;;18.12;52.73;99003.96;235732;1203;139160;-59
2022/07/10 01:27:18;;;;;;;7.00;5.10;;;;;;;18.08;52.96;98996.06;235971;1201;139013;-60
2022/07/10 01:32:21;;;;;;;7.40;4.60;;;;;;;18.05;53.14;98996.87;235870;1200;138366;-55
2022/07/10 01:37:24;;;;;;;8.70;5.50;;;;;;;18.03;52.96;98992.21;235687;1201;140637;-58
2022/07/10 01:42:27;;;;;;;7.70;4.80;;;;;;;17.98;53.23;98985.36;235852;1200;139419;-58
2022/07/10 01:47:29;;;;;;;8.60;5.40;;;;;;;17.93;53.43;98982.68;235315;1202;139368;-57
2022/07/10 01:52:32;;;;;;;9.70;6.20;;;;;;;17.92;53.64;98973.14;235908;1200;138684;-58
2022/07/10 01:57:35;;;;;;;7.90;5.60;;;;;;;17.83;53.73;98965.54;235906;1201;138928;-58
2022/07/10 02:02:38;;;;;;;10.20;6.10;;;;;;;17.74;53.60;98966.90;235878;1201;138973;-58
2022/07/10 02:07:41;;;;;;;10.00;6.50;;;;;;;17.69;53.89;98966.73;235717;1202;138849;-59
2022/07/10 02:12:44;;;;;;;9.70;6.80;;;;;;;17.65;54.16;98956.05;235859;1200;138899;-59
2022/07/10 02:17:47;;;;;;;12.50;6.20;;;;;;;17.64;54.24;98950.75;235837;1199;139168;-59
2022/07/10 02:22:50;;;;;;;8.90;6.10;;;;;;;17.65;54.12;98946.33;235783;1201;139096;-58
2022/07/10 02:27:53;;;;;;;11.40;6.80;;;;;;;17.65;54.31;98949.05;235886;1201;138738;-59
2022/07/10 02:32:57;;;;;;;12.90;6.60;;;;;;;17.60;54.35;98949.89;235879;1201;138719;-59
2022/07/10 02:38:00;;;;;;;10.10;6.90;;;;;;;17.63;54.49;98949.44;235838;1201;139240;-58
2022/07/10 02:43:03;;;;;;;10.40;7.30;;;;;;;17.58;54.81;98944.33;235791;1202;139045;-58
2022/07/10 02:48:06;;;;;;;11.90;7.90;;;;;;;17.59;55.20;98941.86;235802;1203;139058;-57
2022/07/10 02:53:09;;;;;;;12.00;6.40;;;;;;;17.63;55.36;98933.45;235632;1203;138853;-59
2022/07/10 02:58:12;;;;;;;12.60;7.40;;;;;;;17.67;55.29;98927.73;235716;1203;139878;-57
2022/07/10 03:03:17;;;;;;;9.40;7.30;;;;;;;17.70;55.54;98925.09;235885;1203;139317;-59
2022/07/10 03:08:20;;;;;;;10.90;7.40;;;;;;;17.76;55.55;98928.83;235796;1201;138667;-56
2022/07/10 03:13:23;;;;;;;12.00;7.50;;;;;;;17.78;55.47;98932.98;235773;1200;138754;-59
2022/07/10 03:18:26;;;;;;;11.00;7.30;;;;;;;17.76;55.67;98930.50;235783;1203;139384;-58
2022/07/10 03:23:29;;;;;;;12.30;8.10;;;;;;;17.79;55.73;98921.92;235752;1203;139641;-59
2022/07/10 03:28:32;;;;;;;11.40;7.10;;;;;;;17.81;55.91;98915.85;235851;1200;138850;-59
2022/07/10 03:33:35;;;;;;;12.30;7.60;;;;;;;17.78;55.63;98912.89;235926;1203;139512;-59
2022/07/10 03:38:39;;;;;;;13.70;8.30;;;;;;;17.73;55.86;98913.64;235747;1203;138794;-60
2022/07/10 03:43:42;;;;;;;11.80;8.10;;;;;;;17.68;55.95;98913.75;235798;1202;138782;-58
2022/07/10 03:48:45;;;;;;;14.40;8.20;;;;;;;17.71;56.19;98913.67;235743;1201;138971;-58
2022/07/10 03:53:48;;;;;;;12.50;8.20;;;;;;;17.72;56.26;98910.48;235845;1201;140273;-58
2022/07/10 03:58:51;;;;;;;11.50;7.70;;;;;;;17.70;56.29;98904.26;235784;1201;138960;-59
2022/07/10 04:03:54;;;;;;;12.60;7.40;;;;;;;17.66;56.45;98897.80;235884;1203;139030;-59
2022/07/10 04:08:57;;;;;;;13.80;7.00;;;;;;;17.74;56.73;98898.15;235801;1202;141286;-60
2022/07/10 04:14:00;;;;;;;10.90;7.40;;;;;;;17.80;56.79;98888.70;235784;1203;139655;-59
2022/07/10 04:19:03;;;;;;;11.20;8.00;;;;;;;17.84;56.68;98888.60;235748;1200;139019;-59
2022/07/10 04:24:06;;;;;;;13.10;7.20;;;;;;;17.88;56.79;98891.14;235798;1201;138897;-59
2022/07/10 04:29:10;;;;;;;9.40;6.90;;;;;;;17.90;56.53;98894.51;235751;1200;138867;-57
2022/07/10 04:34:13;;;;;;;9.00;6.40;;;;;;;17.88;56.66;98892.16;235893;1202;138898;-59
2022/07/10 04:39:16;;;;;;;9.60;6.50;;;;;;;17.90;56.66;98899.39;235891;1203;139029;-60
2022/07/10 04:44:18;;;;;;;13.10;6.40;;;;;;;17.88;56.77;98895.48;235832;1201;139048;-59
2022/07/10 04:49:22;;;;;;;8.70;5.90;;;;;;;17.82;56.65;98888.80;235675;1203;139019;-58
2022/07/10 04:54:25;;;;;;;9.20;6.80;;;;;;;17.81;56.78;98887.81;235765;1203;139366;-58
2022/07/10 04:59:28;;;;;;;8.80;6.50;;;;;;;17.82;56.63;98884.12;235703;1202;138607;-59
2022/07/10 05:04:31;;;;;;;8.90;7.00;;;;;;;17.80;56.89;98885.95;235810;1201;139239;-57
2022/07/10 05:09:34;;;;;;;10.10;6.90;;;;;;;17.77;56.77;98897.90;235851;1203;140559;-57
2022/07/10 05:14:36;;;;;;;10.60;6.90;;;;;;;17.77;57.02;98890.16;235829;1201;139817;-60
2022/07/10 05:19:40;;;;;;;12.30;7.90;;;;;;;17.80;57.02;98896.71;235853;1203;140567;-59
2022/07/10 05:24:42;;;;;;;9.30;7.00;;;;;;;17.81;57.19;98898.48;235707;1202;138770;-59
2022/07/10 05:29:46;;;;;;;9.90;7.30;;;;;;;17.83;57.21;98889.62;235799;1201;139087;-59
2022/07/10 05:34:49;;;;;;;11.60;7.20;;;;;;;17.86;57.24;98884.30;235772;1201;138907;-57
2022/07/10 05:39:52;;;;;;;8.80;6.70;;;;;;;17.92;57.28;98882.15;235871;1200;139335;-60
2022/07/10 05:44:55;;;;;;;9.30;6.90;;;;;;;17.99;57.27;98880.54;235893;1201;138937;-60
2022/07/10 05:49:59;;;;;;;10.20;6.60;;;;;;;18.08;57.26;98898.07;235842;1201;139454;-60
2022/07/10 05:55:02;;;;;;;8.00;6.00;;;;;;;18.12;57.18;98897.39;235694;1200;139177;-57
2022/07/10 06:00:07;;;;;;;9.10;4.90;;;;;;;18.19;57.25;98893.38;235769;1201;138505;-60
2022/07/10 06:05:13;;;;;;;8.20;4.10;;;;;;;18.20;56.87;98890.71;235968;1202;138879;-60
2022/07/10 06:10:16;;;;;;;4.80;3.10;;;;;;;18.27;56.90;98898.54;235777;1201;138733;-58
2022/07/10 06:15:19;;;;;;;6.10;3.10;;;;;;;18.31;56.51;98885.96;235862;1202;138640;-58
2022/07/10 06:20:23;;;;;;;3.80;3.40;;;;;;;18.37;56.36;98887.52;235835;1199;138455;-57
2022/07/10 06:25:26;;;;;;;4.50;2.90;;;;;;;18.38;56.49;98885.98;235773;1203;138624;-60
2022/07/10 06:30:29;;;;;;;4.70;2.80;;;;;;;18.44;56.47;98898.71;235822;1200;139187;-57
2022/07/10 06:35:31;;;;;;;2.40;2.20;;;;;;;18.46;56.36;98894.17;235884;1203;138937;-58
2022/07/10 06:40:38;;;;;;;3.30;2.40;;;;;;;18.54;56.32;98896.95;235877;1201;138748;-60
2022/07/10 06:45:41;;;;;;;3.40;2.00;;;;;;;18.57;56.24;98894.95;235237;1201;138921;-57
2022/07/10 06:50:44;;;;;;;5.00;1.90;;;;;;;18.62;56.07;98890.24;235642;1201;138612;-60
2022/07/10 06:55:48;;;;;;;3.10;1.60;;;;;;;18.70;55.66;98893.30;235774;1201;138158;-61
2022/07/10 07:00:51;;;;;;;5.20;1.50;;;;;;;18.80;55.78;98887.52;235790;1201;138791;-59
2022/07/10 07:05:54;;;;;;;2.40;1.40;;;;;;;18.93;55.60;98883.45;235868;1203;139112;-58
2022/07/10 07:10:57;;;;;;;5.60;1.50;;;;;;;19.06;55.01;98887.55;235719;1202;138819;-57
2022/07/10 07:16:00;;;;;;;5.30;1.20;;;;;;;19.13;54.55;98892.86;235812;1201;138837;-59
2022/07/10 07:26:25;;;;;;;2.40;1.20;;;;;;;19.26;54.11;98893.11;235804;1203;139262;-60
2022/07/10 07:31:28;;;;;;;2.30;1.00;;;;;;;19.26;53.83;98886.81;235805;1201;138788;-60
2022/07/10 07:36:32;;;;;;;3.90;1.20;;;;;;;19.32;53.79;98894.32;235906;1201;138667;-60
2022/07/10 07:41:34;;;;;;;2.70;1.20;;;;;;;19.40;53.58;98901.11;235716;1203;138619;-59
2022/07/10 07:46:37;;;;;;;2.50;1.20;;;;;;;19.46;53.40;98900.95;235798;1201;139133;-59
2022/07/10 07:51:41;;;;;;;2.80;1.20;;;;;;;19.52;52.75;98902.77;235862;1202;138531;-57
2022/07/10 07:56:43;;;;;;;3.50;1.30;;;;;;;19.53;52.37;98902.27;235815;1202;138661;-58
2022/07/10 08:01:47;;;;;;;4.80;1.10;;;;;;;19.47;52.24;98899.24;235725;1203;139071;-59
2022/07/10 08:06:53;;;;;;;3.00;1.20;;;;;;;19.48;52.28;98899.52;235787;1202;138978;-59
2022/07/10 08:11:56;;;;;;;2.10;1.10;;;;;;;19.59;52.04;98904.52;235799;1203;140359;-59
2022/07/10 08:16:59;;;;;;;2.60;1.00;;;;;;;19.69;51.94;98909.73;235798;1201;139129;-59
2022/07/10 08:22:03;;;;;;;2.40;1.10;;;;;;;19.85;51.91;98899.42;235802;1201;138800;-58
2022/07/10 08:27:08;;;;;;;4.30;1.00;;;;;;;19.95;51.61;98898.88;235874;1202;138990;-59
2022/07/10 08:32:11;;;;;;;4.00;1.60;;;;;;;20.02;51.42;98894.77;235708;1201;138942;-55
2022/07/10 08:37:15;;;;;;;4.10;1.60;;;;;;;20.17;52.32;98895.38;235774;1203;138825;-58
2022/07/10 08:42:19;;;;;;;2.60;1.20;;;;;;;20.36;52.16;98889.61;235750;1201;139078;-58
2022/07/10 08:47:23;;;;;;;3.20;1.10;;;;;;;20.58;51.56;98896.69;235768;1203;138647;-57
2022/07/10 08:52:33;;;;;;;4.20;1.10;;;;;;;20.64;50.92;98896.38;235742;1203;138669;-56
2022/07/10 08:57:38;;;;;;;3.70;1.30;;;;;;;20.76;50.94;98902.09;235843;1202;138837;-56
2022/07/10 09:02:41;;;;;;;6.60;1.60;;;;;;;20.83;50.54;98903.46;235749;1201;138421;-56
2022/07/10 09:07:44;;;;;;;5.80;1.20;;;;;;;20.80;49.72;98914.40;235873;1202;138884;-56
2022/07/10 09:13:06;;;;;;;2.40;1.10;;;;;;;20.59;49.31;98910.86;235714;1203;138783;-58
2022/07/10 09:18:09;;;;;;;3.00;1.00;;;;;;;20.61;49.58;98910.41;235725;1201;138810;-55
2022/07/10 09:23:18;;;;;;;4.00;1.50;;;;;;;20.60;49.02;98918.61;235685;1202;139146;-57
2022/07/10 09:28:23;;;;;;;6.20;1.50;;;;;;;20.60;48.57;98921.04;235731;1202;138448;-58
2022/07/10 09:33:30;;;;;;;5.30;1.30;;;;;;;20.65;48.44;98921.02;235862;1204;138938;-58
2022/07/10 09:38:45;;;;;;;3.40;1.50;;;;;;;20.77;48.01;98917.69;235825;1201;138941;-56
2022/07/10 09:43:51;;;;;;;5.70;1.50;;;;;;;20.79;47.70;98916.48;235779;1202;139100;-59
2022/07/10 09:49:09;;;;;;;5.30;1.10;;;;;;;20.67;47.20;98907.08;235850;1201;138611;-58
2022/07/10 09:54:12;;;;;;;4.10;1.00;;;;;;;20.66;46.99;98913.67;235800;1201;139466;-57
2022/07/10 09:59:17;;;;;;;5.00;1.00;;;;;;;20.80;46.88;98913.13;235783;1203;138238;-57
2022/07/10 10:04:25;;;;;;;6.80;1.20;;;;;;;21.02;47.07;98911.29;235662;1201;138586;-57
2022/07/10 10:09:40;;;;;;;5.90;1.30;;;;;;;21.23;46.87;98911.89;235835;1203;138628;-59
2022/07/10 10:14:44;;;;;;;2.90;0.90;;;;;;;21.40;46.42;98902.14;235732;1199;138334;-57
2022/07/10 10:25:13;;;;;;;4.60;0.90;;;;;;;21.71;45.30;98895.06;235733;1201;138911;-56
2022/07/10 10:30:17;;;;;;;4.80;1.10;;;;;;;22.05;45.11;98895.27;235707;1202;138961;-58
2022/07/10 10:35:46;;;;;;;6.20;1.00;;;;;;;22.02;44.13;98893.05;235743;1204;139162;-58
2022/07/10 10:40:49;;;;;;;8.00;0.80;;;;;;;21.70;43.79;98897.98;235804;1202;138948;-59
2022/07/10 10:45:52;;;;;;;4.00;1.10;;;;;;;21.52;43.70;98900.81;235831;1201;138348;-59
2022/07/10 10:50:59;;;;;;;2.60;1.10;;;;;;;21.37;43.70;98904.13;235784;1203;138712;-59
2022/07/10 10:56:02;;;;;;;4.80;0.90;;;;;;;21.21;43.22;98910.86;235825;1200;138873;-59
2022/07/10 11:01:06;;;;;;;2.50;0.90;;;;;;;20.98;43.34;98908.38;235782;1201;139529;-59
2022/07/10 11:06:38;;;;;;;1.70;0.70;;;;;;;20.90;43.02;98906.41;235679;1203;139174;-59
2022/07/10 11:11:41;;;;;;;3.70;1.00;;;;;;;21.04;43.07;98908.12;235747;1203;140620;-58
2022/07/10 11:16:47;;;;;;;7.10;3.60;;;;;;;21.16;42.92;98909.04;235752;1200;139140;-59
2022/07/10 11:22:06;;;;;;;3.50;1.10;;;;;;;21.22;43.30;98906.10;235866;1203;139218;-59
2022/07/10 11:27:26;;;;;;;5.10;1.00;;;;;;;21.54;43.96;98897.36;235902;1201;138609;-59
2022/07/10 11:32:29;;;;;;;4.10;1.00;;;;;;;21.61;43.66;98905.11;235752;1203;138893;-60
2022/07/10 11:37:32;;;;;;;3.80;0.80;;;;;;;21.60;43.67;98909.20;235703;1203;138861;-58
2022/07/10 11:43:13;;;;;;;5.80;1.80;;;;;;;21.91;43.73;98904.59;235826;1201;139026;-59
2022/07/10 11:48:21;;;;;;;4.40;1.00;;;;;;;22.26;42.66;98900.51;235493;1203;139514;-59
2022/07/10 11:53:25;;;;;;;4.30;1.00;;;;;;;22.17;42.48;98904.46;235826;1201;139143;-58
2022/07/10 11:58:30;;;;;;;3.80;0.70;;;;;;;22.39;42.41;98906.30;235710;1204;138422;-59
2022/07/10 12:03:34;;;;;;;2.40;0.80;;;;;;;22.57;41.43;98905.40;235895;1199;139002;-59
2022/07/10 12:08:47;;;;;;;3.90;0.60;;;;;;;22.77;41.31;98902.65;235693;1204;139133;-58
2022/07/10 12:13:53;;;;;;;4.40;0.70;;;;;;;22.87;40.73;98893.15;235747;1201;138447;-59
2022/07/10 12:18:56;;;;;;;2.50;0.60;;;;;;;22.67;39.99;98890.43;235755;1201;138551;-59
2022/07/10 12:24:02;;;;;;;2.80;0.90;;;;;;;22.38;39.46;98886.89;235771;1201;138687;-59
2022/07/10 12:29:05;;;;;;;2.70;0.60;;;;;;;22.32;39.50;98885.08;235770;1200;138809;-60
2022/07/10 12:34:08;;;;;;;5.90;0.90;;;;;;;22.45;39.31;98891.64;235799;1203;141704;-60
2022/07/10 12:39:14;;;;;;;2.90;0.90;;;;;;;22.65;39.08;98890.48;235854;1203;139317;-59
2022/07/10 12:44:40;;;;;;;2.90;0.90;;;;;;;22.87;38.78;98885.09;235746;1203;138621;-59
2022/07/10 12:50:05;;;;;;;2.60;0.80;;;;;;;23.17;38.45;98884.91;235838;1203;139163;-59
2022/07/10 12:55:21;;;;;;;1.70;0.70;;;;;;;23.39;38.49;98883.33;235747;1202;138615;-59
2022/07/10 13:00:32;;;;;;;4.00;1.00;;;;;;;23.49;38.10;98888.90;235671;1203;138978;-58
2022/07/10 13:05:38;;;;;;;5.70;1.10;;;;;;;23.13;37.95;98895.17;235774;1203;139705;-59
2022/07/10 13:10:43;;;;;;;4.10;0.90;;;;;;;22.73;38.19;98904.16;235808;1203;139290;-59
2022/07/10 13:15:50;;;;;;;1.50;1.00;;;;;;;22.32;38.25;98916.83;235810;1203;138974;-60
2022/07/10 13:20:55;;;;;;;5.60;1.10;;;;;;;21.91;38.32;98915.77;235729;1203;138473;-59
2022/07/10 13:26:06;;;;;;;4.30;0.90;;;;;;;21.59;38.60;98919.73;235787;1202;138522;-60
2022/07/10 13:31:09;;;;;;;3.00;1.00;;;;;;;21.30;38.90;98929.36;235774;1200;139905;-59
2022/07/10 13:36:12;;;;;;;4.00;1.00;;;;;;;21.13;39.23;98928.16;235721;1202;138822;-58
2022/07/10 13:41:16;;;;;;;5.30;1.00;;;;;;;21.14;39.50;98925.83;235795;1201;138717;-59
2022/07/10 13:46:19;;;;;;;3.70;1.00;;;;;;;21.35;39.75;98925.02;235849;1200;139035;-60
2022/07/10 13:51:22;;;;;;;2.90;0.90;;;;;;;21.43;39.38;98924.67;235842;1203;140247;-59
2022/07/10 13:56:25;;;;;;;1.90;0.80;;;;;;;21.34;39.19;98920.11;235847;1201;138544;-58
2022/07/10 14:01:28;;;;;;;3.40;0.90;;;;;;;21.24;38.99;98916.83;235743;1202;139484;-59
2022/07/10 14:06:31;;;;;;;3.60;0.70;;;;;;;21.15;39.22;98923.91;235765;1202;138893;-60
2022/07/10 14:11:34;;;;;;;1.80;0.60;;;;;;;21.10;39.11;98915.27;235779;1203;138737;-59
2022/07/10 14:16:37;;;;;;;6.10;0.80;;;;;;;21.11;39.15;98913.07;235814;1200;138830;-59
2022/07/10 14:21:41;;;;;;;2.90;0.70;;;;;;;21.12;39.19;98917.37;235843;1203;138994;-60
2022/07/10 14:26:46;;;;;;;1.70;0.90;;;;;;;21.14;39.02;98922.41;235869;1201;139008;-58
2022/07/10 14:31:49;;;;;;;0.40;0.20;;;;;;;21.18;38.82;98927.20;235712;1203;139639;-60
2022/07/10 14:36:52;;;;;;;1.60;0.50;;;;;;;21.22;38.79;98936.20;235721;1203;139134;-59
2022/07/10 14:42:04;;;;;;;0.70;0.20;;;;;;;21.14;38.53;98935.30;235760;1200;138852;-57
2022/07/10 14:47:07;;;;;;;;;;;;;;;21.04;38.11;98937.55;235818;1201;139277;-59
2022/07/10 14:52:10;;;;;;;3.50;0.60;;;;;;;21.06;38.20;98937.25;235767;1202;125413;-59
2022/07/10 14:57:14;;;;;;;1.30;0.40;;;;;;;21.17;38.14;98935.21;235941;1201;138620;-59
2022/07/10 15:02:17;;;;;;;3.60;0.50;;;;;;;21.25;38.25;98935.98;235819;1203;139383;-58
2022/07/10 15:07:20;;;;;;;2.30;1.10;;;;;;;21.31;38.37;98941.66;235748;1203;139170;-59
2022/07/10 15:12:23;;;;;;;2.80;0.60;;;;;;;21.29;38.29;98943.49;235694;1202;139180;-58
2022/07/10 15:17:26;;;;;;;1.20;0.40;;;;;;;21.25;38.58;98944.58;235668;1203;139194;-60
2022/07/10 15:22:29;;;;;;;1.70;0.80;;;;;;;21.19;38.79;98946.99;235683;1203;138819;-58
2022/07/10 15:27:33;;;;;;;2.50;0.70;;;;;;;21.18;39.20;98955.96;235879;1202;138698;-59
2022/07/10 15:32:35;;;;;;;1.50;0.50;;;;;;;21.11;39.15;98957.84;235769;1201;141071;-58
2022/07/10 15:37:39;;;;;;;2.30;0.40;;;;;;;21.09;39.27;98954.98;235742;1203;138699;-58
2022/07/10 15:42:42;;;;;;;1.30;0.50;;;;;;;21.15;39.21;98958.41;235783;1201;138972;-58
2022/07/10 15:47:45;;;;;;;1.70;0.60;;;;;;;21.12;39.21;98954.17;235717;1203;138562;-60
2022/07/10 15:52:48;;;;;;;2.30;0.70;;;;;;;21.08;39.16;98955.23;235699;1203;138733;-58
2022/07/10 15:57:51;;;;;;;2.50;0.60;;;;;;;21.03;39.25;98951.08;235861;1202;138678;-57
2022/07/10 16:02:54;;;;;;;2.40;0.60;;;;;;;21.01;39.13;98953.34;235807;1200;138647;-58
2022/07/10 16:07:59;;;;;;;2.50;0.60;;;;;;;20.94;39.01;98956.86;235717;1201;138894;-58
2022/07/10 16:13:03;;;;;;;2.10;0.70;;;;;;;20.86;39.36;98962.02;235740;1201;139048;-59
2022/07/10 16:18:05;;;;;;;2.00;0.80;;;;;;;20.84;39.62;98962.30;235735;1201;139355;-59
2022/07/10 16:23:08;;;;;;;1.70;0.60;;;;;;;20.88;39.74;98964.52;235761;1203;138515;-59
2022/07/10 16:28:12;;;;;;;3.00;0.90;;;;;;;20.86;39.85;98960.77;235768;1201;138283;-59
2022/07/10 16:33:15;;;;;;;1.20;0.50;;;;;;;20.80;39.86;98967.36;235746;1203;138827;-59
2022/07/10 16:38:18;;;;;;;3.30;0.80;;;;;;;20.74;39.99;98968.16;235791;1203;138738;-57
2022/07/10 16:43:21;;;;;;;3.90;0.70;;;;;;;20.66;40.15;98978.58;235737;1203;138878;-58
2022/07/10 16:48:24;;;;;;;3.80;0.60;;;;;;;20.54;40.26;98980.52;235754;1200;140564;-58
2022/07/10 16:53:27;;;;;;;3.90;0.60;;;;;;;20.47;40.51;98991.04;235810;1203;138813;-59
2022/07/10 16:58:30;;;;;;;2.20;0.80;;;;;;;20.32;40.73;98997.02;235786;1201;138785;-59
2022/07/10 17:03:33;;;;;;;4.60;1.10;;;;;;;20.15;41.05;99002.00;235741;1202;138848;-59
2022/07/10 17:08:36;;;;;;;2.80;0.90;;;;;;;20.05;41.61;99001.82;235719;1201;138749;-58
2022/07/10 17:13:39;;;;;;;4.20;0.70;;;;;;;20.01;41.60;99003.11;235771;1203;139322;-56
2022/07/10 17:18:44;;;;;;;1.00;0.70;;;;;;;19.94;41.38;98994.15;235826;1200;139029;-58
2022/07/10 17:23:48;;;;;;;2.20;0.70;;;;;;;19.84;41.23;99002.14;235712;1203;138712;-58
2022/07/10 17:28:51;;;;;;;2.30;1.20;;;;;;;19.72;41.14;99004.30;235759;1201;138715;-58
2022/07/10 17:33:54;;;;;;;3.00;0.90;;;;;;;19.52;41.35;99004.70;235805;1202;139277;-57
2022/07/10 17:38:57;;;;;;;44.50;35.80;;;;;;;19.40;41.86;99007.95;235705;1203;139250;-56
2022/07/10 17:44:00;;;;;;;5.20;2.10;;;;;;;19.33;42.24;99011.17;235739;1201;139536;-58
2022/07/10 17:49:03;;;;;;;34.50;26.60;;;;;;;19.26;42.50;99013.85;235735;1201;139463;-58
2022/07/10 17:54:06;;;;;;;5.50;2.30;;;;;;;19.18;43.02;99020.69;235703;1203;139521;-58
2022/07/10 17:59:09;;;;;;;5.50;1.10;;;;;;;19.10;43.10;99028.16;235686;1202;139322;-58
2022/07/10 18:04:12;;;;;;;3.10;0.80;;;;;;;19.00;43.61;99033.17;235674;1202;139326;-56
2022/07/10 18:09:15;;;;;;;1.70;1.00;;;;;;;18.89;43.69;99045.54;235725;1203;139443;-58
2022/07/10 18:14:19;;;;;;;2.90;1.30;;;;;;;18.80;44.21;99045.66;235665;1201;138865;-56
2022/07/10 18:19:22;;;;;;;2.20;1.00;;;;;;;18.67;44.39;99051.68;235724;1203;138904;-57
2022/07/10 18:24:25;;;;;;;30.60;26.10;;;;;;;18.60;44.60;99058.30;235714;1201;139269;-57
2022/07/10 18:29:28;;;;;;;4.50;2.90;;;;;;;18.55;45.01;99051.19;235747;1200;140128;-58
2022/07/10 18:34:31;;;;;;;2.70;1.30;;;;;;;18.48;45.32;99054.02;235682;1202;139170;-58
2022/07/10 18:39:34;;;;;;;3.20;1.30;;;;;;;18.35;45.50;99054.17;235846;1203;138992;-57
2022/07/10 18:44:37;;;;;;;4.40;1.20;;;;;;;18.29;45.50;99059.81;235731;1201;138967;-60
2022/07/10 18:49:43;;;;;;;3.30;1.20;;;;;;;18.20;45.87;99061.16;235615;1203;138800;-58
2022/07/10 18:54:46;;;;;;;3.80;1.50;;;;;;;18.16;46.17;99070.88;235690;1201;138824;-60
2022/07/10 18:59:49;;;;;;;2.90;1.80;;;;;;;18.12;46.33;99080.23;235386;1203;138716;-58
2022/07/10 19:04:53;;;;;;;3.20;1.90;;;;;;;18.10;46.59;99084.92;235769;1201;138864;-59
2022/07/10 19:09:56;;;;;;;4.00;1.10;;;;;;;18.07;46.82;99086.77;235847;1203;139102;-59
2022/07/10 19:14:59;;;;;;;4.70;2.30;;;;;;;18.05;46.94;99080.72;235779;1203;138859;-59
2022/07/10 19:20:03;;;;;;;18.10;14.10;;;;;;;18.09;47.41;99081.63;235723;1200;139901;-59
2022/07/10 19:25:07;;;;;;;2.30;1.50;;;;;;;18.18;47.38;99085.94;235675;1201;139361;-60
2022/07/10 19:30:13;;;;;;;5.50;1.50;;;;;;;18.16;47.33;99089.17;235671;1201;138802;-57
2022/07/10 19:35:16;;;;;;;5.60;1.80;;;;;;;18.09;47.28;99087.20;235764;1203;138960;-59
2022/07/10 19:40:20;;;;;;;3.20;1.10;;;;;;;18.04;47.06;99090.73;235760;1201;139949;-58
2022/07/10 19:45:23;;;;;;;1.50;1.00;;;;;;;17.93;47.37;99095.30;235677;1203;140978;-60
2022/07/10 19:50:27;;;;;;;2.70;1.00;;;;;;;17.87;47.36;99098.01;235690;1203;140830;-58
2022/07/10 19:55:30;;;;;;;3.50;1.10;;;;;;;17.79;47.73;99098.77;235704;1203;139397;-57
2022/07/10 20:00:33;;;;;;;4.00;1.30;;;;;;;17.69;47.94;99098.14;235918;1200;138714;-58
2022/07/10 20:05:37;;;;;;;4.20;2.10;;;;;;;17.63;48.25;99095.80;235741;1201;139057;-59
2022/07/10 20:10:40;;;;;;;2.80;1.40;;;;;;;17.62;48.61;99105.80;235705;1200;138958;-59
2022/07/10 20:15:43;;;;;;;4.20;1.30;;;;;;;17.53;48.88;99099.41;235788;1202;139068;-58
2022/07/10 20:21:06;;;;;;;3.30;1.40;;;;;;;17.49;49.03;99106.73;235816;1201;138442;-57
2022/07/10 20:26:09;;;;;;;2.30;0.90;;;;;;;17.47;49.12;99108.16;235704;1203;138494;-57
2022/07/10 20:31:12;;;;;;;4.60;1.30;;;;;;;17.47;49.21;99113.02;235730;1202;138975;-55
2022/07/10 20:41:37;;;;;;;5.00;1.10;;;;;;;17.40;49.39;99123.70;235720;1202;138870;-59
2022/07/10 20:46:40;;;;;;;5.30;1.20;;;;;;;17.34;49.51;99118.49;235752;1201;139347;-60
2022/07/10 20:51:43;;;;;;;5.90;1.20;;;;;;;17.32;49.50;99118.39;235844;1203;139084;-59
2022/07/10 20:56:47;;;;;;;3.70;1.20;;;;;;;17.32;50.03;99123.00;235641;1202;138575;-58
2022/07/10 21:01:50;;;;;;;3.60;1.20;;;;;;;17.32;49.96;99120.16;235813;1202;139059;-58
2022/07/10 21:06:53;;;;;;;6.10;1.60;;;;;;;17.29;49.93;99117.20;235691;1201;138680;-59
2022/07/10 21:11:56;;;;;;;4.20;2.70;;;;;;;17.27;50.08;99116.09;235712;1203;138808;-60
2022/07/10 21:17:00;;;;;;;3.80;1.00;;;;;;;17.23;49.99;99114.05;235745;1201;138996;-60
2022/07/10 21:22:03;;;;;;;4.50;2.80;;;;;;;17.20;50.20;99111.67;235683;1203;139109;-59
2022/07/10 21:27:06;;;;;;;5.60;1.30;;;;;;;17.18;50.22;99115.43;235811;1202;138891;-59
2022/07/10 21:32:10;;;;;;;8.50;4.60;;;;;;;17.18;50.36;99117.45;235778;1202;138667;-57
2022/07/10 21:37:13;;;;;;;2.30;1.40;;;;;;;17.18;50.47;99116.48;235737;1201;138724;-57
2022/07/10 21:42:16;;;;;;;4.60;1.30;;;;;;;17.16;50.34;99117.63;235750;1202;139057;-58
2022/07/10 21:47:21;;;;;;;4.40;1.30;;;;;;;17.07;50.48;99115.53;235713;1202;138632;-57
2022/07/10 21:52:24;;;;;;;6.10;3.10;;;;;;;17.05;50.75;99115.55;235833;1201;138852;-58
2022/07/10 21:57:28;;;;;;;6.10;3.40;;;;;;;17.07;50.57;99118.61;235840;1203;141853;-59
2022/07/10 22:02:31;;;;;;;4.10;1.40;;;;;;;17.09;50.78;99118.63;235855;1201;139297;-59
2022/07/10 22:07:34;;;;;;;5.20;1.40;;;;;;;17.08;50.97;99114.18;235805;1202;139080;-59
2022/07/10 22:12:38;;;;;;;2.40;1.20;;;;;;;17.11;51.02;99117.48;235703;1203;138776;-57
2022/07/10 22:17:43;;;;;;;4.70;2.00;;;;;;;17.09;51.00;99107.50;235757;1202;138853;-58
2022/07/10 22:22:46;;;;;;;4.20;1.40;;;;;;;17.12;51.21;99110.58;235780;1202;139315;-57
2022/07/10 22:27:49;;;;;;;3.10;1.40;;;;;;;17.14;50.97;99112.78;236006;1201;138988;-58
2022/07/10 22:32:52;;;;;;;6.70;1.80;;;;;;;17.12;50.98;99107.34;235763;1203;139965;-57
2022/07/10 22:37:55;;;;;;;5.40;1.70;;;;;;;17.11;51.18;99105.30;235831;1201;138930;-57
2022/07/10 22:42:58;;;;;;;5.10;1.60;;;;;;;17.16;51.39;99108.98;235732;1203;139015;-57
2022/07/10 22:48:06;;;;;;;3.90;2.00;;;;;;;17.13;51.33;99101.88;235721;1203;138544;-55
2022/07/10 22:53:09;;;;;;;4.10;1.60;;;;;;;17.13;51.30;99099.61;235756;1203;138482;-57
2022/07/10 22:58:12;;;;;;;3.80;1.70;;;;;;;17.13;51.36;99101.17;235824;1201;138798;-57
2022/07/10 23:03:16;;;;;;;4.10;1.50;;;;;;;17.12;51.48;99093.55;235886;1202;139620;-57
2022/07/10 23:08:19;;;;;;;4.20;1.70;;;;;;;17.09;51.40;99092.18;235794;1202;138560;-58
2022/07/10 23:13:22;;;;;;;3.60;1.40;;;;;;;17.09;51.75;99095.22;235792;1202;138671;-57
2022/07/10 23:18:25;;;;;;;5.70;1.60;;;;;;;17.05;51.43;99090.27;235821;1203;138982;-57
2022/07/10 23:23:28;;;;;;;4.90;1.50;;;;;;;17.03;51.40;99093.77;235846;1201;139235;-57
2022/07/10 23:28:31;;;;;;;4.20;1.70;;;;;;;17.00;51.60;99094.26;235778;1201;139015;-57
2022/07/10 23:33:34;;;;;;;6.80;1.60;;;;;;;16.93;51.74;99099.02;235879;1202;138550;-57